createdAt,value
2023-02-26T00:02:27.614Z,7.70
2023-02-26T00:04:58.256Z,6.15
2023-02-26T00:07:29.572Z,5.18
2023-02-26T00:10:02.908Z,4.65
2023-02-26T00:12:35.063Z,7.32
2023-02-26T00:15:08.846Z,5.05
2023-02-26T00:17:47.197Z,5.20
2023-02-26T00:20:19.668Z,10.32
2023-02-26T00:22:52.142Z,6.97
2023-02-26T00:25:24.214Z,5.15
2023-02-26T00:27:56.234Z,5.68
2023-02-26T00:30:28.037Z,6.22
2023-02-26T00:32:59.852Z,5.80
2023-02-26T00:35:31.782Z,9.60
2023-02-26T00:38:05.510Z,4.40
2023-02-26T00:43:19.212Z,7.50
2023-02-26T00:45:58.207Z,5.32
2023-02-26T00:48:44.600Z,8.18
2023-02-26T00:51:29.505Z,5.40
2023-02-26T00:54:11.103Z,14.43
2023-02-26T00:56:43.222Z,7.53
2023-02-26T00:59:14.160Z,9.48
2023-02-26T01:01:45.549Z,9.77
2023-02-26T01:04:20.802Z,5.83
2023-02-26T01:06:54.778Z,8.88
2023-02-26T01:09:29.268Z,8.73
2023-02-26T01:12:05.533Z,5.57
2023-02-26T01:14:38.703Z,6.07
2023-02-26T01:17:16.699Z,7.97
2023-02-26T01:19:52.585Z,7.45
2023-02-26T01:22:31.618Z,9.18
2023-02-26T01:25:08.662Z,8.60
2023-02-26T01:27:41.625Z,9.05
2023-02-26T01:30:14.416Z,10.48
2023-02-26T01:32:50.884Z,13.77
2023-02-26T01:35:38.618Z,10.70
2023-02-26T01:38:22.072Z,9.50
2023-02-26T01:41:31.764Z,8.88
2023-02-26T01:44:19.210Z,7.90
2023-02-26T01:47:17.225Z,7.80
2023-02-26T01:49:49.015Z,7.55
2023-02-26T01:53:18.412Z,9.15
2023-02-26T01:55:56.771Z,10.55
2023-02-26T01:58:32.423Z,8.25
2023-02-26T02:01:05.787Z,9.68
2023-02-26T02:03:41.072Z,9.23
2023-02-26T02:06:19.046Z,10.98
2023-02-26T02:08:50.352Z,7.72
2023-02-26T02:11:21.570Z,7.97
2023-02-26T02:14:13.682Z,8.52
2023-02-26T02:16:56.643Z,12.25
2023-02-26T02:20:07.467Z,9.55
2023-02-26T02:23:10.947Z,7.25
2023-02-26T02:26:41.852Z,5.38
2023-02-26T02:29:55.904Z,10.20
2023-02-26T02:32:33.068Z,11.20
2023-02-26T02:35:13.165Z,3.75
2023-02-26T02:37:50.207Z,5.88
2023-02-26T02:40:24.917Z,9.27
2023-02-26T02:43:02.796Z,5.43
2023-02-26T02:45:39.825Z,8.23
2023-02-26T02:48:19.570Z,4.35
2023-02-26T02:50:56.942Z,7.05
2023-02-26T02:53:32.466Z,7.53
2023-02-26T02:56:09.168Z,7.18
2023-02-26T02:58:46.116Z,4.47
2023-02-26T03:01:21.086Z,6.72
2023-02-26T03:04:02.303Z,14.13
2023-02-26T03:06:35.326Z,4.85
2023-02-26T03:09:09.613Z,13.98
2023-02-26T03:11:44.578Z,8.90
2023-02-26T03:14:17.682Z,5.53
2023-02-26T03:20:03.074Z,10.55
2023-02-26T03:22:41.548Z,7.70
2023-02-26T03:25:25.530Z,5.97
2023-02-26T03:28:05.693Z,8.07
2023-02-26T03:30:43.836Z,6.53
2023-02-26T03:33:23.062Z,10.98
2023-02-26T03:36:00.957Z,4.88
2023-02-26T03:38:40.246Z,7.70
2023-02-26T03:41:15.758Z,4.53
2023-02-26T03:43:52.525Z,5.53
2023-02-26T03:46:30.946Z,4.60
2023-02-26T03:49:08.677Z,4.65
2023-02-26T03:51:43.278Z,5.78
2023-02-26T03:54:44.160Z,3.30
2023-02-26T03:57:33.984Z,4.53
2023-02-26T04:00:43.542Z,4.60
2023-02-26T04:03:23.224Z,5.65
2023-02-26T04:05:55.192Z,4.00
2023-02-26T04:08:28.811Z,2.92
2023-02-26T04:11:04.673Z,5.90
2023-02-26T04:13:36.717Z,4.95
2023-02-26T04:16:09.296Z,3.45
2023-02-26T04:18:40.912Z,6.63
2023-02-26T04:21:14.483Z,3.75
2023-02-26T04:23:47.314Z,7.10
2023-02-26T04:26:18.788Z,4.90
2023-02-26T04:28:50.725Z,4.35
2023-02-26T04:31:22.440Z,2.95
2023-02-26T04:33:53.646Z,5.82
2023-02-26T04:36:25.091Z,6.63
2023-02-26T04:38:57.878Z,6.05
2023-02-26T04:41:28.763Z,4.03
2023-02-26T04:43:59.850Z,7.82
2023-02-26T04:46:35.061Z,4.80
2023-02-26T04:49:06.252Z,2.28
2023-02-26T04:51:37.277Z,4.55
2023-02-26T04:54:11.218Z,4.72
2023-02-26T04:59:12.888Z,6.35
2023-02-26T05:01:44.435Z,4.80
2023-02-26T05:04:15.843Z,2.60
2023-02-26T05:06:50.788Z,3.40
2023-02-26T05:09:23.383Z,1.92
2023-02-26T05:11:54.156Z,3.67
2023-02-26T05:14:25.175Z,7.45
2023-02-26T05:16:55.892Z,3.00
2023-02-26T05:19:27.856Z,2.83
2023-02-26T05:21:58.665Z,3.65
2023-02-26T05:24:32.290Z,4.97
2023-02-26T05:27:04.927Z,3.80
2023-02-26T05:29:38.300Z,4.97
2023-02-26T05:32:09.861Z,3.22
2023-02-26T05:34:41.929Z,3.30
2023-02-26T05:37:12.927Z,3.38
2023-02-26T05:39:45.616Z,2.67
2023-02-26T05:42:17.792Z,3.85
2023-02-26T05:44:48.967Z,3.55
2023-02-26T05:47:19.825Z,5.38
2023-02-26T05:49:51.021Z,8.07
2023-02-26T05:52:21.980Z,5.57
2023-02-26T05:54:54.475Z,5.88
2023-02-26T05:57:25.704Z,4.82
2023-02-26T05:59:57.264Z,5.57
2023-02-26T06:02:28.688Z,3.63
2023-02-26T06:05:01.240Z,2.30
2023-02-26T06:07:32.179Z,4.57
2023-02-26T06:10:05.220Z,3.75
2023-02-26T06:12:36.976Z,4.53
2023-02-26T06:15:10.415Z,4.35
2023-02-26T06:17:42.496Z,4.07
2023-02-26T06:20:14.919Z,3.58
2023-02-26T06:22:45.631Z,2.15
2023-02-26T06:25:19.204Z,1.90
2023-02-26T06:27:51.100Z,4.00
2023-02-26T06:30:23.938Z,4.93
2023-02-26T06:32:55.212Z,8.00
2023-02-26T06:35:26.508Z,6.57
2023-02-26T06:37:57.415Z,7.38
2023-02-26T06:40:30.894Z,2.00
2023-02-26T06:45:33.334Z,6.15
2023-02-26T06:48:04.128Z,4.43
2023-02-26T06:50:35.670Z,2.83
2023-02-26T06:53:06.691Z,4.10
2023-02-26T06:55:43.607Z,5.93
2023-02-26T06:58:15.374Z,6.63
2023-02-26T07:00:46.662Z,5.75
2023-02-26T07:03:19.730Z,3.47
2023-02-26T07:05:51.594Z,6.13
2023-02-26T07:08:22.331Z,4.68
2023-02-26T07:10:54.944Z,11.02
2023-02-26T07:13:25.656Z,3.78
2023-02-26T07:15:56.744Z,6.88
2023-02-26T07:18:27.621Z,6.03
2023-02-26T07:20:58.807Z,9.85
2023-02-26T07:23:29.889Z,8.10
2023-02-26T07:26:02.481Z,8.50
2023-02-26T07:28:33.151Z,6.13
2023-02-26T07:31:04.525Z,4.10
2023-02-26T07:33:35.368Z,6.65
2023-02-26T07:36:07.401Z,10.73
2023-02-26T07:38:38.077Z,4.95
2023-02-26T07:41:10.590Z,12.45
2023-02-26T07:43:41.177Z,8.55
2023-02-26T07:46:12.771Z,9.90
2023-02-26T07:48:43.501Z,10.80
2023-02-26T07:51:14.642Z,6.57
2023-02-26T07:53:45.347Z,6.18
2023-02-26T07:56:17.960Z,7.47
2023-02-26T07:58:49.256Z,6.45
2023-02-26T08:01:20.752Z,8.32
2023-02-26T08:03:51.634Z,7.95
2023-02-26T08:06:23.421Z,8.40
2023-02-26T08:08:54.417Z,9.77
2023-02-26T08:11:26.965Z,8.48
2023-02-26T08:13:57.788Z,8.77
2023-02-26T08:16:28.990Z,8.20
2023-02-26T08:18:59.833Z,4.95
2023-02-26T08:21:31.289Z,8.63
2023-02-26T08:24:02.326Z,10.65
2023-02-26T08:26:38.323Z,8.15
2023-02-26T08:29:09.471Z,7.68
2023-02-26T08:31:40.589Z,7.20
2023-02-26T08:34:11.517Z,7.20
2023-02-26T08:36:42.758Z,5.47
2023-02-26T08:39:13.456Z,7.97
2023-02-26T08:41:46.035Z,9.38
2023-02-26T08:44:17.000Z,8.15
2023-02-26T08:46:48.267Z,8.30
2023-02-26T08:49:19.002Z,6.10
2023-02-26T08:51:50.399Z,12.60
2023-02-26T08:54:21.620Z,5.25
2023-02-26T08:56:56.118Z,5.80
2023-02-26T08:59:26.899Z,4.75
2023-02-26T09:01:57.901Z,5.95
2023-02-26T09:04:31.039Z,4.82
2023-02-26T09:07:02.386Z,4.95
2023-02-26T09:09:32.953Z,5.38
2023-02-26T09:12:05.803Z,9.95
2023-02-26T09:14:36.708Z,4.63
2023-02-26T09:17:07.754Z,9.45
2023-02-26T09:19:38.529Z,6.75
2023-02-26T09:22:09.726Z,9.32
2023-02-26T09:24:40.465Z,8.73
2023-02-26T09:27:13.161Z,9.18
2023-02-26T09:29:43.878Z,7.25
2023-02-26T09:32:15.195Z,8.20
2023-02-26T09:34:46.230Z,6.50
2023-02-26T09:37:17.371Z,5.35
2023-02-26T09:39:48.073Z,10.30
2023-02-26T09:42:37.627Z,5.00
2023-02-26T09:45:13.804Z,7.28
2023-02-26T09:47:52.038Z,8.43
2023-02-26T09:50:27.838Z,12.15
2023-02-26T09:53:04.395Z,8.40
2023-02-26T09:55:43.612Z,6.47
2023-02-26T09:58:24.629Z,10.35
2023-02-26T10:01:07.002Z,6.82
2023-02-26T10:04:00.201Z,10.23
2023-02-26T10:06:35.577Z,8.85
2023-02-26T10:09:32.310Z,11.65
2023-02-26T10:12:08.725Z,8.98
2023-02-26T10:14:49.332Z,8.30
2023-02-26T10:17:29.522Z,10.05
2023-02-26T10:20:10.451Z,7.45
2023-02-26T10:22:48.594Z,9.52
2023-02-26T10:25:24.322Z,9.30
2023-02-26T10:28:02.729Z,9.50
2023-02-26T10:30:44.120Z,6.80
2023-02-26T10:33:22.457Z,8.30
2023-02-26T10:35:59.804Z,5.20
2023-02-26T10:38:33.907Z,10.02
2023-02-26T10:41:12.136Z,7.10
2023-02-26T10:43:45.454Z,5.55
2023-02-26T10:46:32.447Z,6.35
2023-02-26T10:49:46.386Z,6.80
2023-02-26T10:52:20.858Z,4.57
2023-02-26T10:55:09.951Z,6.97
2023-02-26T10:57:48.727Z,9.25
2023-02-26T11:00:22.855Z,6.15
2023-02-26T11:02:57.938Z,9.10
2023-02-26T11:05:31.427Z,7.53
2023-02-26T11:08:06.122Z,8.35
2023-02-26T11:10:52.259Z,8.63
2023-02-26T11:13:24.757Z,6.30
2023-02-26T11:15:57.857Z,9.63
2023-02-26T11:23:34.802Z,8.13
2023-02-26T11:26:09.016Z,6.25
2023-02-26T11:28:47.410Z,7.72
2023-02-26T11:31:21.934Z,8.40
2023-02-26T11:34:00.315Z,9.00
2023-02-26T11:36:34.197Z,6.00
2023-02-26T11:39:10.358Z,9.65
2023-02-26T11:41:42.359Z,9.50
2023-02-26T11:44:18.620Z,8.63
2023-02-26T11:46:58.445Z,9.55
2023-02-26T11:49:32.616Z,10.27
2023-02-26T11:52:18.243Z,7.60
2023-02-26T11:54:51.282Z,4.65
2023-02-26T11:57:27.238Z,11.90
2023-02-26T12:00:03.894Z,9.45
2023-02-26T12:02:45.518Z,10.75
2023-02-26T12:05:19.942Z,12.35
2023-02-26T12:07:50.854Z,12.32
2023-02-26T12:10:31.338Z,7.63
2023-02-26T12:13:13.507Z,6.18
2023-02-26T12:15:56.832Z,9.23
2023-02-26T12:18:45.630Z,7.68
2023-02-26T12:21:46.300Z,11.52
2023-02-26T12:24:56.282Z,7.38
2023-02-26T12:27:43.903Z,8.95
2023-02-26T12:30:43.830Z,4.93
2023-02-26T12:33:30.479Z,11.38
2023-02-26T12:36:28.283Z,11.25
2023-02-26T12:39:18.674Z,5.97
2023-02-26T12:42:09.669Z,9.23
2023-02-26T12:45:05.729Z,5.22
2023-02-26T12:47:49.428Z,6.72
2023-02-26T12:50:57.723Z,4.10
2023-02-26T12:53:55.235Z,6.95
2023-02-26T12:56:59.351Z,5.97
2023-02-26T12:59:59.443Z,6.82
2023-02-26T13:03:51.918Z,3.90
2023-02-26T13:07:01.436Z,3.83
2023-02-26T13:09:53.598Z,6.20
2023-02-26T13:12:40.819Z,6.45
2023-02-26T13:15:41.714Z,7.03
2023-02-26T13:18:19.618Z,10.27
2023-02-26T13:21:00.652Z,3.70
2023-02-26T13:23:38.377Z,6.13
2023-02-26T13:26:13.501Z,5.80
2023-02-26T13:28:48.960Z,7.15
2023-02-26T13:31:26.800Z,5.38
2023-02-26T13:34:03.226Z,7.25
2023-02-26T13:36:35.447Z,8.73
2023-02-26T13:39:33.107Z,9.35
2023-02-26T13:42:22.920Z,8.80
2023-02-26T13:45:12.961Z,6.43
2023-02-26T13:48:05.284Z,8.95
2023-02-26T13:50:48.822Z,9.02
2023-02-26T13:53:54.370Z,10.40
2023-02-26T13:56:50.795Z,9.52
2023-02-26T13:59:55.516Z,9.38
2023-02-26T14:02:55.492Z,10.35
2023-02-26T14:05:55.858Z,11.63
2023-02-26T14:08:52.862Z,6.80
2023-02-26T14:11:43.994Z,7.38
2023-02-26T14:14:25.854Z,15.98
2023-02-26T14:17:32.548Z,4.38
2023-02-26T14:20:26.980Z,12.07
2023-02-26T14:23:39.418Z,4.78
2023-02-26T14:26:20.555Z,5.43
2023-02-26T14:29:08.278Z,8.63
2023-02-26T14:32:24.284Z,9.75
2023-02-26T14:34:59.533Z,6.00
2023-02-26T14:37:33.160Z,7.45
2023-02-26T14:40:14.868Z,14.85
2023-02-26T14:42:50.241Z,11.45
2023-02-26T14:45:31.810Z,11.75
2023-02-26T14:48:08.195Z,4.45
2023-02-26T14:50:50.285Z,14.23
2023-02-26T14:54:04.268Z,8.82
2023-02-26T14:56:52.942Z,8.15
2023-02-26T14:59:59.490Z,11.13
2023-02-26T15:02:34.958Z,6.75
2023-02-26T15:05:27.802Z,10.57
2023-02-26T15:08:36.026Z,6.05
2023-02-26T15:11:44.698Z,7.28
2023-02-26T15:14:53.997Z,10.63
2023-02-26T15:17:54.554Z,6.22
2023-02-26T15:20:41.946Z,7.53
2023-02-26T15:23:42.902Z,7.22
2023-02-26T15:26:23.255Z,6.55
2023-02-26T15:28:55.366Z,9.68
2023-02-26T15:31:35.866Z,11.93
2023-02-26T15:34:06.760Z,16.77
2023-02-26T15:36:41.611Z,12.68
2023-02-26T15:39:12.372Z,10.90
2023-02-26T15:41:43.513Z,13.80
2023-02-26T15:44:20.299Z,14.07
2023-02-26T15:46:57.720Z,9.80
2023-02-26T15:49:31.734Z,7.72
2023-02-26T15:52:06.944Z,8.73
2023-02-26T15:54:44.984Z,16.67
2023-02-26T15:57:20.320Z,17.48
2023-02-26T15:59:53.932Z,13.43
2023-02-26T16:02:31.329Z,8.30
2023-02-26T16:05:04.146Z,14.57
2023-02-26T16:07:36.754Z,14.48
2023-02-26T16:10:17.400Z,15.13
2023-02-26T16:12:51.664Z,14.60
2023-02-26T16:15:30.440Z,11.60
2023-02-26T16:18:03.613Z,14.30
2023-02-26T16:20:40.415Z,10.50
2023-02-26T16:23:17.559Z,10.52
2023-02-26T16:25:54.608Z,13.88
2023-02-26T16:28:31.580Z,16.15
2023-02-26T16:31:05.950Z,14.05
2023-02-26T16:33:39.066Z,16.20
2023-02-26T16:36:18.442Z,22.80
2023-02-26T16:38:58.034Z,26.50
2023-02-26T16:41:33.745Z,34.42
2023-02-26T16:44:26.588Z,28.42
2023-02-26T16:46:58.036Z,24.73
2023-02-26T16:49:34.438Z,41.53
2023-02-26T16:52:06.488Z,18.27
2023-02-26T16:54:43.394Z,23.33
2023-02-26T16:57:19.816Z,20.35
2023-02-26T16:59:55.102Z,25.65
2023-02-26T17:02:36.598Z,17.48
2023-02-26T17:05:22.605Z,16.30
2023-02-26T17:07:58.841Z,20.13
2023-02-26T17:10:39.901Z,19.60
2023-02-26T17:13:19.547Z,19.58
2023-02-26T17:15:54.207Z,19.20
2023-02-26T17:18:25.378Z,19.45
2023-02-26T17:20:56.670Z,23.75
2023-02-26T17:23:37.019Z,28.27
2023-02-26T17:26:10.279Z,18.65
2023-02-26T17:28:44.485Z,22.47
2023-02-26T17:31:16.317Z,25.23
2023-02-26T17:33:47.505Z,19.58
2023-02-26T17:36:20.680Z,26.00
2023-02-26T17:38:51.312Z,41.57
2023-02-26T17:41:24.215Z,44.30
2023-02-26T17:43:55.512Z,31.20
2023-02-26T17:46:27.084Z,26.73
2023-02-26T17:48:58.309Z,58.88
2023-02-26T17:51:30.028Z,51.47
2023-02-26T17:54:00.899Z,31.15
2023-02-26T17:56:37.190Z,21.88
2023-02-26T17:59:08.334Z,24.20
2023-02-26T18:01:41.796Z,20.10
2023-02-26T18:04:13.835Z,20.48
2023-02-26T18:06:45.462Z,19.27
2023-02-26T18:09:17.721Z,20.08
2023-02-26T18:11:50.799Z,18.95
2023-02-26T18:14:21.584Z,25.80
2023-02-26T18:16:52.828Z,21.42
2023-02-26T18:19:24.732Z,22.25
2023-02-26T18:21:56.174Z,19.33
2023-02-26T18:24:28.166Z,25.88
2023-02-26T18:27:00.722Z,17.88
2023-02-26T18:29:31.434Z,25.52
2023-02-26T18:32:03.839Z,18.23
2023-02-26T18:34:35.321Z,14.57
2023-02-26T18:37:06.713Z,22.77
2023-02-26T18:39:38.267Z,19.80
2023-02-26T18:42:20.788Z,18.73
2023-02-26T18:44:53.378Z,20.35
2023-02-26T18:47:25.472Z,17.38
2023-02-26T18:49:57.140Z,17.33
2023-02-26T18:52:28.354Z,19.83
2023-02-26T18:54:59.928Z,18.08
2023-02-26T18:57:33.760Z,19.90
2023-02-26T19:00:05.936Z,20.35
2023-02-26T19:02:37.681Z,20.90
2023-02-26T19:05:10.319Z,18.52
2023-02-26T19:07:42.830Z,17.30
2023-02-26T19:10:15.179Z,18.50
2023-02-26T19:12:48.288Z,23.08
2023-02-26T19:15:19.424Z,23.25
2023-02-26T19:17:50.357Z,23.23
2023-02-26T19:20:21.377Z,25.65
2023-02-26T19:22:53.871Z,24.35
2023-02-26T19:25:27.277Z,22.48
2023-02-26T19:28:01.361Z,20.05
2023-02-26T19:30:34.717Z,24.48
2023-02-26T19:33:06.085Z,21.55
2023-02-26T19:35:37.435Z,20.25
2023-02-26T19:38:10.249Z,20.23
2023-02-26T19:40:41.404Z,18.00
2023-02-26T19:43:13.902Z,22.52
2023-02-26T19:45:44.651Z,36.85
2023-02-26T19:48:15.961Z,46.70
2023-02-26T19:50:51.157Z,37.22
2023-02-26T19:53:22.928Z,30.42
2023-02-26T19:55:54.210Z,24.70
2023-02-26T19:58:30.758Z,29.08
2023-02-26T20:01:06.080Z,21.80
2023-02-26T20:03:38.989Z,19.13
2023-02-26T20:06:12.723Z,23.75
2023-02-26T20:08:45.917Z,20.38
2023-02-26T20:11:18.008Z,28.27
2023-02-26T20:13:51.734Z,37.92
2023-02-26T20:16:22.587Z,33.28
2023-02-26T20:18:53.868Z,25.95
2023-02-26T20:21:27.736Z,35.85
2023-02-26T20:23:59.192Z,27.17
2023-02-26T20:26:30.138Z,29.88
2023-02-26T20:29:03.095Z,26.15
2023-02-26T20:31:34.217Z,31.90
2023-02-26T20:34:06.776Z,44.20
2023-02-26T20:36:39.010Z,54.33
2023-02-26T20:39:10.786Z,39.30
2023-02-26T20:41:42.138Z,24.25
2023-02-26T20:44:14.761Z,16.13
2023-02-26T20:46:47.829Z,16.95
2023-02-26T20:49:20.658Z,17.52
2023-02-26T20:51:53.020Z,15.38
2023-02-26T20:54:24.762Z,22.05
2023-02-26T20:56:55.961Z,18.23
2023-02-26T20:59:29.395Z,24.58
2023-02-26T21:02:00.643Z,25.70
2023-02-26T21:04:32.301Z,17.30
2023-02-26T21:07:22.143Z,18.48
2023-02-26T21:09:55.523Z,21.27
2023-02-26T21:12:27.513Z,15.95
2023-02-26T21:15:00.375Z,16.50
2023-02-26T21:17:31.920Z,14.00
2023-02-26T21:20:06.221Z,20.23
2023-02-26T21:22:37.734Z,20.67
2023-02-26T21:25:10.757Z,13.55
2023-02-26T21:27:42.117Z,27.07
2023-02-26T21:30:16.461Z,31.13
2023-02-26T21:32:47.648Z,28.33
2023-02-26T21:35:19.432Z,32.13
2023-02-26T21:37:50.077Z,30.73
2023-02-26T21:40:21.531Z,28.17
2023-02-26T21:42:52.375Z,30.40
2023-02-26T21:45:25.086Z,49.20
2023-02-26T21:47:55.932Z,50.20
2023-02-26T21:50:27.052Z,49.17
2023-02-26T21:52:58.089Z,46.13
2023-02-26T21:55:29.305Z,44.22
2023-02-26T21:58:00.562Z,35.17
2023-02-26T22:00:33.027Z,36.38
2023-02-26T22:03:05.528Z,32.78
2023-02-26T22:05:37.008Z,23.88
2023-02-26T22:08:08.181Z,27.75
2023-02-26T22:10:39.436Z,31.27
2023-02-26T22:13:10.227Z,31.30
2023-02-26T22:15:43.335Z,30.65
2023-02-26T22:18:14.083Z,25.95
2023-02-26T22:20:45.201Z,25.33
2023-02-26T22:23:16.235Z,26.15
2023-02-26T22:25:47.651Z,25.88
2023-02-26T22:28:18.786Z,26.42
2023-02-26T22:30:51.898Z,29.20
2023-02-26T22:33:23.097Z,26.52
2023-02-26T22:35:57.963Z,27.45
2023-02-26T22:38:29.027Z,25.67
2023-02-26T22:41:00.493Z,24.20
2023-02-26T22:43:31.378Z,21.73
2023-02-26T22:46:04.196Z,22.30
2023-02-26T22:48:35.308Z,23.37
2023-02-26T22:51:07.180Z,23.75
2023-02-26T22:53:37.854Z,22.33
2023-02-26T22:56:09.689Z,20.98
2023-02-26T22:58:40.491Z,20.83
2023-02-26T23:01:13.115Z,27.25
2023-02-26T23:03:44.317Z,23.63
2023-02-26T23:06:16.309Z,27.58
2023-02-26T23:08:46.984Z,26.17
2023-02-26T23:11:18.226Z,25.05
2023-02-26T23:13:48.977Z,23.23
2023-02-26T23:16:21.395Z,15.73
2023-02-26T23:18:52.183Z,18.30
2023-02-26T23:21:23.320Z,21.77
2023-02-26T23:23:54.051Z,22.75
2023-02-26T23:26:25.486Z,18.95
2023-02-26T23:28:56.450Z,17.23
2023-02-26T23:31:29.397Z,13.70
2023-02-26T23:34:00.468Z,13.65
2023-02-26T23:36:31.604Z,19.88
2023-02-26T23:39:02.335Z,19.83
2023-02-26T23:41:33.424Z,15.43
2023-02-26T23:44:04.200Z,22.10
2023-02-26T23:46:37.547Z,21.95
2023-02-26T23:49:09.659Z,13.23
2023-02-26T23:51:40.642Z,19.58
2023-02-26T23:54:13.236Z,19.45
2023-02-26T23:56:46.360Z,20.40
2023-02-26T23:59:18.542Z,15.40
